sensor_id;sensor_type;location;lat;lon;timestamp;pressure;altitude;pressure_sealevel;temperature;humidity
10167;BME280;62970;53.130;8.244;2023-05-19T00:16:51;102898.94;;;6.94;61.43
10167;BME280;62970;53.130;8.244;2023-05-19T00:19:21;102898.84;;;6.91;61.47
10167;BME280;62970;53.130;8.244;2023-05-19T03:28:25;102863.31;;;5.05;60.42
10167;BME280;62970;53.130;8.244;2023-05-19T03:30:55;102865.09;;;5.08;61.02
10167;BME280;62970;53.130;8.244;2023-05-19T03:33:27;102860.88;;;5.10;60.92
10167;BME280;62970;53.130;8.244;2023-05-19T03:35:57;102860.09;;;5.13;60.95
10167;BME280;62970;53.130;8.244;2023-05-19T03:38:26;102861.94;;;5.17;61.13
10167;BME280;62970;53.130;8.244;2023-05-19T03:40:57;102862.03;;;5.20;61.11
10167;BME280;62970;53.130;8.244;2023-05-19T03:43:29;102864.72;;;5.23;61.19
10167;BME280;62970;53.130;8.244;2023-05-19T04:01:33;102872.16;;;5.39;61.25
10167;BME280;62970;53.130;8.244;2023-05-19T04:04:03;102869.66;;;5.42;61.24
10167;BME280;62970;53.130;8.244;2023-05-19T04:06:33;102865.41;;;5.44;61.52
10167;BME280;62970;53.130;8.244;2023-05-19T04:14:03;102873.50;;;5.55;61.40
10167;BME280;62970;53.130;8.244;2023-05-19T04:16:38;102873.53;;;5.56;61.74
10167;BME280;62970;53.130;8.244;2023-05-19T04:19:08;102864.16;;;5.60;61.36
10167;BME280;62970;53.130;8.244;2023-05-19T04:21:37;102866.00;;;5.64;61.71
10167;BME280;62970;53.130;8.244;2023-05-19T04:24:07;102872.09;;;5.66;62.03
10167;BME280;62970;53.130;8.244;2023-05-19T04:26:36;102872.25;;;5.70;61.37
10167;BME280;62970;53.130;8.244;2023-05-19T04:29:06;102876.69;;;5.75;61.28
10167;BME280;62970;53.130;8.244;2023-05-19T04:31:39;102870.75;;;5.79;61.27
10167;BME280;62970;53.130;8.244;2023-05-19T04:34:09;102873.47;;;5.83;61.76
10167;BME280;62970;53.130;8.244;2023-05-19T04:36:39;102868.53;;;5.91;61.27
10167;BME280;62970;53.130;8.244;2023-05-19T04:39:08;102869.84;;;6.07;62.02
10167;BME280;62970;53.130;8.244;2023-05-19T04:41:37;102870.72;;;6.39;61.65
10167;BME280;62970;53.130;8.244;2023-05-19T04:44:09;102880.59;;;6.86;61.54
10167;BME280;62970;53.130;8.244;2023-05-19T04:46:45;102876.09;;;7.50;61.58
10167;BME280;62970;53.130;8.244;2023-05-19T04:49:15;102863.72;;;8.21;60.80
10167;BME280;62970;53.130;8.244;2023-05-19T04:51:44;102861.50;;;8.89;59.56
10167;BME280;62970;53.130;8.244;2023-05-19T04:54:15;102867.44;;;9.38;58.11
10167;BME280;62970;53.130;8.244;2023-05-19T04:56:44;102865.22;;;9.67;57.34
10167;BME280;62970;53.130;8.244;2023-05-19T04:59:13;102862.16;;;9.98;56.84
10167;BME280;62970;53.130;8.244;2023-05-19T05:01:46;102866.16;;;10.41;56.64
10167;BME280;62970;53.130;8.244;2023-05-19T05:04:16;102864.00;;;10.93;56.06
10167;BME280;62970;53.130;8.244;2023-05-19T05:06:46;102862.72;;;11.59;55.52
10167;BME280;62970;53.130;8.244;2023-05-19T05:09:17;102862.97;;;12.29;55.17
10167;BME280;62970;53.130;8.244;2023-05-19T05:11:47;102867.44;;;13.02;54.42
10167;BME280;62970;53.130;8.244;2023-05-19T05:14:18;102854.19;;;13.70;53.31
10167;BME280;62970;53.130;8.244;2023-05-19T05:16:51;102859.94;;;14.38;52.43
10167;BME280;62970;53.130;8.244;2023-05-19T05:19:22;102863.03;;;14.96;51.07
10167;BME280;62970;53.130;8.244;2023-05-19T05:21:52;102854.66;;;15.45;50.24
10167;BME280;62970;53.130;8.244;2023-05-19T05:24:23;102857.72;;;15.84;49.57
10167;BME280;62970;53.130;8.244;2023-05-19T06:37:11;102851.28;;;21.61;44.57
10167;BME280;62970;53.130;8.244;2023-05-19T06:39:44;102846.59;;;21.91;43.42
10167;BME280;62970;53.130;8.244;2023-05-19T06:42:14;102857.31;;;22.12;41.78
10167;BME280;62970;53.130;8.244;2023-05-19T06:44:47;102861.09;;;22.28;41.11
10167;BME280;62970;53.130;8.244;2023-05-19T06:47:17;102855.16;;;22.43;40.60
10167;BME280;62970;53.130;8.244;2023-05-19T06:49:47;102856.69;;;22.49;39.65
10167;BME280;62970;53.130;8.244;2023-05-19T06:52:23;102849.41;;;22.54;39.54
10167;BME280;62970;53.130;8.244;2023-05-19T06:54:53;102845.78;;;22.77;39.43
10167;BME280;62970;53.130;8.244;2023-05-19T06:57:22;102849.63;;;23.12;38.83
10167;BME280;62970;53.130;8.244;2023-05-19T06:59:52;102845.41;;;23.47;38.22
10167;BME280;62970;53.130;8.244;2023-05-19T07:02:21;102840.31;;;23.80;37.16
10167;BME280;62970;53.130;8.244;2023-05-19T07:04:51;102845.59;;;24.00;36.98
10167;BME280;62970;53.130;8.244;2023-05-19T07:07:23;102845.69;;;24.16;36.67
10167;BME280;62970;53.130;8.244;2023-05-19T07:09:53;102843.94;;;24.34;36.19
10167;BME280;62970;53.130;8.244;2023-05-19T07:12:23;102840.97;;;24.57;35.14
10167;BME280;62970;53.130;8.244;2023-05-19T07:14:53;102846.81;;;24.82;34.78
10167;BME280;62970;53.130;8.244;2023-05-19T07:17:23;102841.22;;;25.04;34.57
10167;BME280;62970;53.130;8.244;2023-05-19T07:19:52;102837.63;;;25.23;33.75
10167;BME280;62970;53.130;8.244;2023-05-19T07:22:24;102829.22;;;25.46;33.65
10167;BME280;62970;53.130;8.244;2023-05-19T07:24:53;102845.31;;;25.62;32.96
10167;BME280;62970;53.130;8.244;2023-05-19T07:27:22;102846.00;;;25.81;32.86
10167;BME280;62970;53.130;8.244;2023-05-19T07:29:53;102843.00;;;26.03;32.45
10167;BME280;62970;53.130;8.244;2023-05-19T07:32:22;102835.31;;;26.28;32.35
10167;BME280;62970;53.130;8.244;2023-05-19T07:34:52;102838.56;;;26.49;31.86
10167;BME280;62970;53.130;8.244;2023-05-19T07:37:24;102835.47;;;26.71;31.87
10167;BME280;62970;53.130;8.244;2023-05-19T07:39:53;102841.44;;;26.90;31.00
10167;BME280;62970;53.130;8.244;2023-05-19T07:42:23;102840.44;;;27.07;31.47
10167;BME280;62970;53.130;8.244;2023-05-19T07:44:52;102842.28;;;27.21;30.91
10167;BME280;62970;53.130;8.244;2023-05-19T07:47:22;102842.75;;;27.27;29.96
10167;BME280;62970;53.130;8.244;2023-05-19T07:49:51;102837.69;;;27.23;29.98
10167;BME280;62970;53.130;8.244;2023-05-19T07:52:23;102837.19;;;27.02;29.80
10167;BME280;62970;53.130;8.244;2023-05-19T07:54:55;102838.38;;;26.82;29.60
10167;BME280;62970;53.130;8.244;2023-05-19T07:57:24;102834.91;;;26.66;28.81
10167;BME280;62970;53.130;8.244;2023-05-19T07:59:54;102836.56;;;26.53;28.87
10167;BME280;62970;53.130;8.244;2023-05-19T08:02:25;102838.06;;;26.42;29.39
10167;BME280;62970;53.130;8.244;2023-05-19T08:04:54;102825.56;;;26.43;29.41
10167;BME280;62970;53.130;8.244;2023-05-19T08:07:26;102829.00;;;26.45;28.86
10167;BME280;62970;53.130;8.244;2023-05-19T08:09:58;102830.97;;;26.41;28.58
10167;BME280;62970;53.130;8.244;2023-05-19T08:12:27;102831.50;;;26.32;28.65
10167;BME280;62970;53.130;8.244;2023-05-19T08:14:57;102828.31;;;26.26;28.65
10167;BME280;62970;53.130;8.244;2023-05-19T08:17:26;102835.66;;;26.22;28.66
10167;BME280;62970;53.130;8.244;2023-05-19T08:19:55;102828.09;;;26.15;27.82
10167;BME280;62970;53.130;8.244;2023-05-19T08:22:28;102824.56;;;25.98;28.58
10167;BME280;62970;53.130;8.244;2023-05-19T08:24:57;102826.44;;;25.80;28.08
10167;BME280;62970;53.130;8.244;2023-05-19T08:27:27;102827.13;;;25.68;27.78
10167;BME280;62970;53.130;8.244;2023-05-19T08:29:57;102822.00;;;25.48;28.04
10167;BME280;62970;53.130;8.244;2023-05-19T08:32:27;102821.97;;;25.15;28.11
10167;BME280;62970;53.130;8.244;2023-05-19T08:34:57;102830.75;;;24.67;28.52
10167;BME280;62970;53.130;8.244;2023-05-19T08:37:32;102820.16;;;23.93;29.06
10167;BME280;62970;53.130;8.244;2023-05-19T08:40:04;102816.09;;;23.08;29.24
10167;BME280;62970;53.130;8.244;2023-05-19T08:42:36;102826.50;;;22.29;30.27
10167;BME280;62970;53.130;8.244;2023-05-19T08:45:11;102811.66;;;21.57;30.85
10167;BME280;62970;53.130;8.244;2023-05-19T08:47:41;102814.69;;;20.98;31.90
10167;BME280;62970;53.130;8.244;2023-05-19T08:50:20;102804.06;;;20.47;32.59
10167;BME280;62970;53.130;8.244;2023-05-19T08:52:59;102810.91;;;19.98;33.06
10167;BME280;62970;53.130;8.244;2023-05-19T08:55:35;102807.72;;;19.57;33.22
10167;BME280;62970;53.130;8.244;2023-05-19T08:58:06;102802.63;;;19.20;33.72
10167;BME280;62970;53.130;8.244;2023-05-19T09:00:36;102812.34;;;18.86;34.12
10167;BME280;62970;53.130;8.244;2023-05-19T09:03:06;102798.19;;;18.54;35.03
10167;BME280;62970;53.130;8.244;2023-05-19T09:05:38;102807.66;;;18.27;35.56
10167;BME280;62970;53.130;8.244;2023-05-19T09:08:10;102797.63;;;18.04;35.23
10167;BME280;62970;53.130;8.244;2023-05-19T09:10:40;102808.47;;;17.91;35.92
10167;BME280;62970;53.130;8.244;2023-05-19T09:13:09;102797.41;;;17.73;35.53
10167;BME280;62970;53.130;8.244;2023-05-19T09:15:38;102796.94;;;17.54;35.57
10167;BME280;62970;53.130;8.244;2023-05-19T09:18:10;102801.66;;;17.37;36.42
10167;BME280;62970;53.130;8.244;2023-05-19T09:20:41;102794.84;;;17.26;36.28
10167;BME280;62970;53.130;8.244;2023-05-19T09:23:17;102795.88;;;17.18;36.52
10167;BME280;62970;53.130;8.244;2023-05-19T09:25:51;102795.06;;;17.15;36.80
10167;BME280;62970;53.130;8.244;2023-05-19T09:28:25;102780.19;;;17.12;37.25
10167;BME280;62970;53.130;8.244;2023-05-19T09:30:59;102782.88;;;17.09;37.19
10167;BME280;62970;53.130;8.244;2023-05-19T09:33:29;102774.97;;;17.09;36.60
10167;BME280;62970;53.130;8.244;2023-05-19T09:36:01;102778.53;;;17.07;37.09
10167;BME280;62970;53.130;8.244;2023-05-19T09:38:35;102769.94;;;16.97;36.81
10167;BME280;62970;53.130;8.244;2023-05-19T09:41:06;102782.44;;;16.86;37.56
10167;BME280;62970;53.130;8.244;2023-05-19T09:43:36;102777.28;;;16.80;37.72
10167;BME280;62970;53.130;8.244;2023-05-19T09:46:08;102777.34;;;16.77;37.63
10167;BME280;62970;53.130;8.244;2023-05-19T09:48:37;102773.91;;;16.73;37.98
10167;BME280;62970;53.130;8.244;2023-05-19T09:51:07;102768.63;;;16.73;38.20
10167;BME280;62970;53.130;8.244;2023-05-19T09:53:41;102764.28;;;16.71;38.11
10167;BME280;62970;53.130;8.244;2023-05-19T09:56:14;102764.25;;;16.72;37.98
10167;BME280;62970;53.130;8.244;2023-05-19T09:58:48;102764.22;;;16.74;37.72
10167;BME280;62970;53.130;8.244;2023-05-19T10:01:18;102765.03;;;16.79;37.90
10167;BME280;62970;53.130;8.244;2023-05-19T10:03:52;102758.75;;;16.86;37.61
10167;BME280;62970;53.130;8.244;2023-05-19T10:06:22;102755.97;;;16.94;38.14
10167;BME280;62970;53.130;8.244;2023-05-19T10:08:56;102753.16;;;17.03;37.95
10167;BME280;62970;53.130;8.244;2023-05-19T10:11:26;102755.53;;;17.15;37.28
10167;BME280;62970;53.130;8.244;2023-05-19T10:13:57;102755.28;;;17.27;37.61
10167;BME280;62970;53.130;8.244;2023-05-19T10:16:28;102748.91;;;17.39;37.33
10167;BME280;62970;53.130;8.244;2023-05-19T10:18:59;102750.47;;;17.49;37.17
10167;BME280;62970;53.130;8.244;2023-05-19T10:21:28;102748.38;;;17.63;36.05
10167;BME280;62970;53.130;8.244;2023-05-19T10:24:00;102746.47;;;17.70;35.66
10167;BME280;62970;53.130;8.244;2023-05-19T10:26:30;102748.25;;;17.69;35.51
10167;BME280;62970;53.130;8.244;2023-05-19T10:29:00;102746.59;;;17.65;35.42
10167;BME280;62970;53.130;8.244;2023-05-19T10:31:31;102748.38;;;17.63;35.09
10167;BME280;62970;53.130;8.244;2023-05-19T10:34:19;102741.34;;;17.64;35.13
10167;BME280;62970;53.130;8.244;2023-05-19T10:37:01;102735.16;;;17.65;34.82
10167;BME280;62970;53.130;8.244;2023-05-19T10:39:38;102729.88;;;17.65;34.45
10167;BME280;62970;53.130;8.244;2023-05-19T10:42:15;102725.47;;;17.65;35.21
10167;BME280;62970;53.130;8.244;2023-05-19T10:44:57;102726.38;;;17.64;35.03
10167;BME280;62970;53.130;8.244;2023-05-19T10:47:29;102724.59;;;17.66;34.94
10167;BME280;62970;53.130;8.244;2023-05-19T10:50:00;102714.88;;;17.68;34.51
10167;BME280;62970;53.130;8.244;2023-05-19T10:52:29;102718.19;;;17.76;34.40
10167;BME280;62970;53.130;8.244;2023-05-19T10:55:04;102717.97;;;17.87;34.66
10167;BME280;62970;53.130;8.244;2023-05-19T10:57:53;102722.22;;;17.93;34.37
10167;BME280;62970;53.130;8.244;2023-05-19T11:00:29;102723.06;;;17.95;33.59
10167;BME280;62970;53.130;8.244;2023-05-19T11:03:12;102722.16;;;17.96;33.72
10167;BME280;62970;53.130;8.244;2023-05-19T11:05:43;102729.13;;;17.98;33.50
10167;BME280;62970;53.130;8.244;2023-05-19T11:08:15;102728.19;;;18.01;34.01
10167;BME280;62970;53.130;8.244;2023-05-19T11:10:51;102728.84;;;18.10;33.00
10167;BME280;62970;53.130;8.244;2023-05-19T11:13:20;102719.78;;;18.21;33.72
10167;BME280;62970;53.130;8.244;2023-05-19T11:15:50;102719.53;;;18.31;33.78
10167;BME280;62970;53.130;8.244;2023-05-19T11:18:19;102719.47;;;18.34;33.35
10167;BME280;62970;53.130;8.244;2023-05-19T11:20:55;102717.91;;;18.27;32.78
10167;BME280;62970;53.130;8.244;2023-05-19T11:23:32;102712.84;;;18.16;33.16
10167;BME280;62970;53.130;8.244;2023-05-19T11:26:09;102712.09;;;18.11;32.51
10167;BME280;62970;53.130;8.244;2023-05-19T11:28:38;102708.56;;;18.12;32.55
10167;BME280;62970;53.130;8.244;2023-05-19T11:31:10;102701.50;;;18.13;32.47
10167;BME280;62970;53.130;8.244;2023-05-19T11:33:39;102704.97;;;18.15;32.61
10167;BME280;62970;53.130;8.244;2023-05-19T11:36:10;102703.97;;;18.19;33.02
10167;BME280;62970;53.130;8.244;2023-05-19T11:38:42;102700.31;;;18.26;32.90
10167;BME280;62970;53.130;8.244;2023-05-19T11:41:15;102701.78;;;18.38;33.41
10167;BME280;62970;53.130;8.244;2023-05-19T11:43:46;102689.97;;;18.51;32.95
10167;BME280;62970;53.130;8.244;2023-05-19T11:46:15;102693.34;;;18.56;32.56
10167;BME280;62970;53.130;8.244;2023-05-19T11:48:46;102698.56;;;18.59;33.15
10167;BME280;62970;53.130;8.244;2023-05-19T11:51:16;102700.25;;;18.62;32.46
10167;BME280;62970;53.130;8.244;2023-05-19T11:53:49;102704.63;;;18.63;32.35
10167;BME280;62970;53.130;8.244;2023-05-19T11:56:22;102701.19;;;18.59;32.22
10167;BME280;62970;53.130;8.244;2023-05-19T11:58:52;102704.09;;;18.50;31.99
10167;BME280;62970;53.130;8.244;2023-05-19T12:01:23;102699.91;;;18.41;32.72
10167;BME280;62970;53.130;8.244;2023-05-19T12:03:53;102689.34;;;18.41;32.27
10167;BME280;62970;53.130;8.244;2023-05-19T12:06:22;102688.38;;;18.45;32.53
10167;BME280;62970;53.130;8.244;2023-05-19T12:08:54;102684.69;;;18.51;32.18
10167;BME280;62970;53.130;8.244;2023-05-19T12:11:27;102692.50;;;18.56;32.69
10167;BME280;62970;53.130;8.244;2023-05-19T12:13:58;102681.03;;;18.57;32.37
10167;BME280;62970;53.130;8.244;2023-05-19T12:16:33;102682.88;;;18.53;31.97
10167;BME280;62970;53.130;8.244;2023-05-19T12:19:04;102679.50;;;18.48;31.83
10167;BME280;62970;53.130;8.244;2023-05-19T12:21:35;102671.66;;;18.45;31.82
10167;BME280;62970;53.130;8.244;2023-05-19T12:24:05;102683.13;;;18.44;31.96
10167;BME280;62970;53.130;8.244;2023-05-19T12:26:37;102681.50;;;18.38;32.25
10167;BME280;62970;53.130;8.244;2023-05-19T12:29:07;102678.94;;;18.35;31.86
10167;BME280;62970;53.130;8.244;2023-05-19T12:31:36;102675.53;;;18.32;31.90
10167;BME280;62970;53.130;8.244;2023-05-19T12:34:05;102685.38;;;18.25;32.29
10167;BME280;62970;53.130;8.244;2023-05-19T12:36:35;102681.06;;;18.21;32.21
10167;BME280;62970;53.130;8.244;2023-05-19T12:39:05;102681.13;;;18.18;31.88
10167;BME280;62970;53.130;8.244;2023-05-19T12:41:37;102672.28;;;18.21;32.38
10167;BME280;62970;53.130;8.244;2023-05-19T12:44:14;102664.09;;;18.31;32.56
10167;BME280;62970;53.130;8.244;2023-05-19T12:46:44;102662.75;;;18.49;32.19
10167;BME280;62970;53.130;8.244;2023-05-19T12:49:13;102662.28;;;18.66;31.90
10167;BME280;62970;53.130;8.244;2023-05-19T12:51:51;102660.94;;;18.82;32.12
10167;BME280;62970;53.130;8.244;2023-05-19T12:54:20;102658.06;;;18.90;31.21
10167;BME280;62970;53.130;8.244;2023-05-19T12:56:53;102659.03;;;18.87;31.11
10167;BME280;62970;53.130;8.244;2023-05-19T12:59:26;102650.28;;;18.85;31.17
10167;BME280;62970;53.130;8.244;2023-05-19T13:01:56;102659.28;;;18.78;30.78
10167;BME280;62970;53.130;8.244;2023-05-19T13:04:25;102647.94;;;18.74;31.33
10167;BME280;62970;53.130;8.244;2023-05-19T13:06:54;102648.88;;;18.72;31.17
10167;BME280;62970;53.130;8.244;2023-05-19T13:09:23;102649.84;;;18.69;31.00
10167;BME280;62970;53.130;8.244;2023-05-19T13:11:56;102645.47;;;18.68;31.30
10167;BME280;62970;53.130;8.244;2023-05-19T13:14:25;102641.88;;;18.71;30.83
10167;BME280;62970;53.130;8.244;2023-05-19T13:16:54;102638.09;;;18.79;31.37
10167;BME280;62970;53.130;8.244;2023-05-19T13:19:23;102640.34;;;18.93;30.69
10167;BME280;62970;53.130;8.244;2023-05-19T13:21:53;102631.16;;;19.06;31.29
10167;BME280;62970;53.130;8.244;2023-05-19T13:24:22;102637.88;;;19.18;31.28
10167;BME280;62970;53.130;8.244;2023-05-19T13:26:51;102638.53;;;19.25;31.01
10167;BME280;62970;53.130;8.244;2023-05-19T13:29:23;102635.91;;;19.25;31.14
10167;BME280;62970;53.130;8.244;2023-05-19T13:31:53;102634.22;;;19.22;30.34
10167;BME280;62970;53.130;8.244;2023-05-19T13:34:22;102629.22;;;19.13;30.59
10167;BME280;62970;53.130;8.244;2023-05-19T13:36:51;102633.03;;;19.03;30.52
10167;BME280;62970;53.130;8.244;2023-05-19T13:39:20;102628.94;;;18.91;30.27
10167;BME280;62970;53.130;8.244;2023-05-19T13:41:49;102628.41;;;18.80;30.12
10167;BME280;62970;53.130;8.244;2023-05-19T13:44:18;102625.94;;;18.74;30.00
10167;BME280;62970;53.130;8.244;2023-05-19T13:46:53;102629.44;;;18.74;29.76
10167;BME280;62970;53.130;8.244;2023-05-19T13:49:22;102625.81;;;18.78;30.07
10167;BME280;62970;53.130;8.244;2023-05-19T13:51:55;102622.06;;;18.86;29.79
10167;BME280;62970;53.130;8.244;2023-05-19T13:54:25;102627.09;;;18.95;29.80
10167;BME280;62970;53.130;8.244;2023-05-19T13:56:55;102612.00;;;18.98;29.97
10167;BME280;62970;53.130;8.244;2023-05-19T13:59:25;102613.72;;;18.99;30.32
10167;BME280;62970;53.130;8.244;2023-05-19T14:01:57;102609.44;;;18.95;29.75
10167;BME280;62970;53.130;8.244;2023-05-19T14:04:27;102611.31;;;18.92;30.27
10167;BME280;62970;53.130;8.244;2023-05-19T14:06:57;102609.59;;;18.91;29.77
10167;BME280;62970;53.130;8.244;2023-05-19T14:09:26;102609.53;;;18.92;28.99
10167;BME280;62970;53.130;8.244;2023-05-19T14:11:55;102606.03;;;18.92;29.39
10167;BME280;62970;53.130;8.244;2023-05-19T14:14:24;102607.72;;;18.94;29.19
10167;BME280;62970;53.130;8.244;2023-05-19T14:16:57;102606.75;;;18.97;29.19
10167;BME280;62970;53.130;8.244;2023-05-19T14:19:26;102607.59;;;18.99;29.14
10167;BME280;62970;53.130;8.244;2023-05-19T14:21:56;102599.56;;;19.02;29.24
10167;BME280;62970;53.130;8.244;2023-05-19T14:24:25;102602.97;;;19.07;29.56
10167;BME280;62970;53.130;8.244;2023-05-19T14:26:55;102602.78;;;19.13;29.75
10167;BME280;62970;53.130;8.244;2023-05-19T14:29:24;102597.25;;;19.21;30.06
10167;BME280;62970;53.130;8.244;2023-05-19T14:31:56;102601.28;;;19.32;29.62
10167;BME280;62970;53.130;8.244;2023-05-19T14:34:25;102592.19;;;19.41;29.44
10167;BME280;62970;53.130;8.244;2023-05-19T14:36:54;102603.47;;;19.46;29.24
10167;BME280;62970;53.130;8.244;2023-05-19T14:39:24;102597.19;;;19.50;28.65
10167;BME280;62970;53.130;8.244;2023-05-19T14:41:53;102599.72;;;19.53;29.14
10167;BME280;62970;53.130;8.244;2023-05-19T14:44:28;102603.22;;;19.54;28.75
10167;BME280;62970;53.130;8.244;2023-05-19T14:47:01;102598.84;;;19.53;29.20
10167;BME280;62970;53.130;8.244;2023-05-19T14:49:32;102607.75;;;19.50;28.81
10167;BME280;62970;53.130;8.244;2023-05-19T14:52:02;102607.97;;;19.44;29.36
10167;BME280;62970;53.130;8.244;2023-05-19T14:54:31;102608.25;;;19.35;29.50
10167;BME280;62970;53.130;8.244;2023-05-19T14:57:01;102605.84;;;19.27;29.47
10167;BME280;62970;53.130;8.244;2023-05-19T14:59:35;102598.00;;;19.24;29.80
10167;BME280;62970;53.130;8.244;2023-05-19T15:02:07;102595.47;;;19.21;30.00
10167;BME280;62970;53.130;8.244;2023-05-19T15:04:37;102599.97;;;19.18;29.12
10167;BME280;62970;53.130;8.244;2023-05-19T15:07:06;102596.63;;;19.12;29.54
10167;BME280;62970;53.130;8.244;2023-05-19T15:09:35;102591.44;;;19.09;29.18
10167;BME280;62970;53.130;8.244;2023-05-19T15:12:05;102595.66;;;19.15;29.31
10167;BME280;62970;53.130;8.244;2023-05-19T15:14:34;102585.56;;;19.28;29.34
10167;BME280;62970;53.130;8.244;2023-05-19T15:17:06;102590.56;;;19.37;29.03
10167;BME280;62970;53.130;8.244;2023-05-19T15:19:35;102579.63;;;19.48;28.80
10167;BME280;62970;53.130;8.244;2023-05-19T15:22:06;102570.47;;;19.58;29.21
10167;BME280;62970;53.130;8.244;2023-05-19T15:24:35;102582.63;;;19.63;28.70
10167;BME280;62970;53.130;8.244;2023-05-19T15:27:06;102574.69;;;19.63;29.10
10167;BME280;62970;53.130;8.244;2023-05-19T15:29:35;102567.81;;;19.58;28.98
10167;BME280;62970;53.130;8.244;2023-05-19T15:32:08;102571.66;;;19.49;29.28
10167;BME280;62970;53.130;8.244;2023-05-19T15:34:37;102563.28;;;19.35;29.70
10167;BME280;62970;53.130;8.244;2023-05-19T15:37:06;102568.88;;;19.26;29.35
10167;BME280;62970;53.130;8.244;2023-05-19T15:39:36;102575.31;;;19.17;29.65
10167;BME280;62970;53.130;8.244;2023-05-19T15:42:05;102577.34;;;19.09;29.98
10167;BME280;62970;53.130;8.244;2023-05-19T15:44:34;102573.00;;;19.06;29.66
10167;BME280;62970;53.130;8.244;2023-05-19T15:47:06;102574.84;;;19.04;29.56
10167;BME280;62970;53.130;8.244;2023-05-19T15:49:36;102569.50;;;19.06;29.65
10167;BME280;62970;53.130;8.244;2023-05-19T15:52:06;102576.47;;;19.08;29.85
10167;BME280;62970;53.130;8.244;2023-05-19T15:54:35;102573.88;;;19.07;30.19
10167;BME280;62970;53.130;8.244;2023-05-19T15:57:05;102579.31;;;19.02;29.39
10167;BME280;62970;53.130;8.244;2023-05-19T15:59:34;102572.44;;;18.95;29.86
10167;BME280;62970;53.130;8.244;2023-05-19T16:02:07;102571.78;;;18.89;29.84
10167;BME280;62970;53.130;8.244;2023-05-19T16:04:36;102569.31;;;18.82;29.95
10167;BME280;62970;53.130;8.244;2023-05-19T16:07:05;102565.06;;;18.77;30.20
10167;BME280;62970;53.130;8.244;2023-05-19T16:09:34;102568.63;;;18.76;30.08
10167;BME280;62970;53.130;8.244;2023-05-19T16:12:05;102560.75;;;18.74;30.34
10167;BME280;62970;53.130;8.244;2023-05-19T16:14:34;102556.38;;;18.73;30.23
10167;BME280;62970;53.130;8.244;2023-05-19T16:17:06;102564.22;;;18.76;30.04
10167;BME280;62970;53.130;8.244;2023-05-19T16:19:36;102563.16;;;18.82;30.50
10167;BME280;62970;53.130;8.244;2023-05-19T16:22:06;102564.84;;;18.85;30.06
10167;BME280;62970;53.130;8.244;2023-05-19T16:24:35;102563.13;;;18.83;29.78
10167;BME280;62970;53.130;8.244;2023-05-19T16:27:05;102544.66;;;18.82;30.10
10167;BME280;62970;53.130;8.244;2023-05-19T16:29:34;102554.56;;;18.75;30.07
10167;BME280;62970;53.130;8.244;2023-05-19T16:32:07;102564.44;;;18.69;30.15
10167;BME280;62970;53.130;8.244;2023-05-19T16:34:37;102558.44;;;18.64;30.47
10167;BME280;62970;53.130;8.244;2023-05-19T16:37:06;102565.47;;;18.63;30.44
10167;BME280;62970;53.130;8.244;2023-05-19T16:39:35;102551.41;;;18.63;29.95
10167;BME280;62970;53.130;8.244;2023-05-19T16:42:05;102547.84;;;18.64;30.62
10167;BME280;62970;53.130;8.244;2023-05-19T16:44:35;102546.00;;;18.67;30.27
10167;BME280;62970;53.130;8.244;2023-05-19T16:47:07;102552.00;;;18.72;30.39
10167;BME280;62970;53.130;8.244;2023-05-19T16:49:36;102549.22;;;18.77;30.31
10167;BME280;62970;53.130;8.244;2023-05-19T16:52:06;102559.56;;;18.85;30.51
10167;BME280;62970;53.130;8.244;2023-05-19T16:54:35;102554.19;;;18.88;30.67
10167;BME280;62970;53.130;8.244;2023-05-19T16:57:06;102550.69;;;18.87;30.59
10167;BME280;62970;53.130;8.244;2023-05-19T16:59:38;102556.88;;;18.86;30.80
10167;BME280;62970;53.130;8.244;2023-05-19T17:02:10;102556.97;;;18.83;30.42
10167;BME280;62970;53.130;8.244;2023-05-19T17:04:39;102567.72;;;18.77;30.47
10167;BME280;62970;53.130;8.244;2023-05-19T17:07:10;102562.75;;;18.66;30.31
10167;BME280;62970;53.130;8.244;2023-05-19T17:09:40;102557.88;;;18.53;30.85
10167;BME280;62970;53.130;8.244;2023-05-19T17:12:10;102557.41;;;18.38;30.80
10167;BME280;62970;53.130;8.244;2023-05-19T17:14:39;102556.06;;;18.24;31.03
10167;BME280;62970;53.130;8.244;2023-05-19T17:17:11;102561.78;;;18.07;31.07
10167;BME280;62970;53.130;8.244;2023-05-19T17:19:40;102556.00;;;17.93;31.68
10167;BME280;62970;53.130;8.244;2023-05-19T17:22:10;102559.81;;;17.79;32.04
10167;BME280;62970;53.130;8.244;2023-05-19T17:24:40;102565.41;;;17.67;32.18
10167;BME280;62970;53.130;8.244;2023-05-19T17:27:09;102574.50;;;17.55;32.39
10167;BME280;62970;53.130;8.244;2023-05-19T17:29:38;102568.59;;;17.46;32.30
10167;BME280;62970;53.130;8.244;2023-05-19T17:32:07;102569.63;;;17.37;32.43
10167;BME280;62970;53.130;8.244;2023-05-19T17:34:39;102564.56;;;17.30;32.55
10167;BME280;62970;53.130;8.244;2023-05-19T17:37:08;102562.03;;;17.25;32.85
10167;BME280;62970;53.130;8.244;2023-05-19T17:39:41;102570.91;;;17.21;32.51
10167;BME280;62970;53.130;8.244;2023-05-19T17:42:10;102566.56;;;17.18;32.93
10167;BME280;62970;53.130;8.244;2023-05-19T17:44:39;102577.16;;;17.17;32.57
10167;BME280;62970;53.130;8.244;2023-05-19T17:47:09;102571.91;;;17.15;33.20
10167;BME280;62970;53.130;8.244;2023-05-19T17:49:41;102574.53;;;17.15;32.72
10167;BME280;62970;53.130;8.244;2023-05-19T17:52:12;102577.16;;;17.17;32.84
10167;BME280;62970;53.130;8.244;2023-05-19T17:54:42;102574.41;;;17.21;32.68
10167;BME280;62970;53.130;8.244;2023-05-19T17:57:15;102576.94;;;17.26;33.13
10167;BME280;62970;53.130;8.244;2023-05-19T17:59:46;102575.00;;;17.34;33.31
10167;BME280;62970;53.130;8.244;2023-05-19T18:02:16;102582.81;;;17.37;33.14